createdAt,value
2017-01-12T00:00:44.389Z,5.25
2017-01-12T00:01:44.375Z,5.27
2017-01-12T00:02:44.361Z,5.25
2017-01-12T00:03:44.354Z,5.24
2017-01-12T00:04:44.335Z,5.21
2017-01-12T00:05:44.325Z,5.25
2017-01-12T00:06:44.311Z,5.2
2017-01-12T00:07:44.304Z,5.2
2017-01-12T00:08:44.290Z,5.24
2017-01-12T00:09:44.282Z,5.27
2017-01-12T00:10:44.264Z,5.3
2017-01-12T00:11:44.257Z,5.24
2017-01-12T00:12:44.238Z,5.2
2017-01-12T00:13:44.227Z,5.31
2017-01-12T00:14:44.217Z,5.28
2017-01-12T00:15:44.207Z,5.24
2017-01-12T00:16:44.188Z,5.24
2017-01-12T00:17:44.176Z,5.35
2017-01-12T00:18:44.169Z,5.28
2017-01-12T00:19:44.176Z,5.24
2017-01-12T00:20:44.141Z,5.24
2017-01-12T00:21:44.128Z,5.27
2017-01-12T00:22:44.118Z,5.22
2017-01-12T00:23:44.101Z,5.22
2017-01-12T00:24:44.090Z,5.3
2017-01-12T00:25:44.079Z,5.21
2017-01-12T00:26:44.067Z,5.27
2017-01-12T00:27:44.055Z,5.27
2017-01-12T00:28:44.045Z,5.21
2017-01-12T00:29:44.033Z,5.28
2017-01-12T00:30:44.020Z,5.28
2017-01-12T00:31:44.008Z,5.22
2017-01-12T00:32:43.993Z,5.3
2017-01-12T00:33:43.983Z,5.27
2017-01-12T00:34:43.970Z,5.27
2017-01-12T00:35:43.965Z,5.27
2017-01-12T00:36:43.944Z,5.22
2017-01-12T00:37:43.938Z,5.13
2017-01-12T00:38:43.919Z,5.17
2017-01-12T00:39:43.911Z,5.18
2017-01-12T00:40:43.896Z,5.24
2017-01-12T00:41:43.887Z,5.22
2017-01-12T00:42:43.875Z,5.17
2017-01-12T00:43:43.875Z,5.2
2017-01-12T00:44:43.847Z,5.13
2017-01-12T00:45:43.837Z,5.2
2017-01-12T00:46:43.855Z,5.17
2017-01-12T00:47:43.811Z,5.24
2017-01-12T00:48:43.803Z,5.22
2017-01-12T00:49:43.787Z,5.21
2017-01-12T00:50:43.773Z,5.25
2017-01-12T00:51:43.764Z,5.25
2017-01-12T00:52:43.752Z,5.15
2017-01-12T00:53:43.737Z,5.15
2017-01-12T00:54:43.725Z,5.21
2017-01-12T00:55:43.716Z,5.13
2017-01-12T00:56:43.702Z,5.17
2017-01-12T00:57:43.694Z,5.17
2017-01-12T00:58:43.680Z,5.07
2017-01-12T00:59:43.665Z,5.21
2017-01-12T01:00:43.656Z,5.18
2017-01-12T01:01:44.028Z,5.12
2017-01-12T01:02:43.631Z,5.03
2017-01-12T01:03:43.618Z,5.1
2017-01-12T01:04:43.604Z,5.09
2017-01-12T01:05:43.592Z,5.07
2017-01-12T01:06:43.581Z,5.07
2017-01-12T01:07:43.571Z,5.06
2017-01-12T01:08:43.560Z,5.04
2017-01-12T01:09:43.546Z,4.99
2017-01-12T01:10:43.531Z,5.02
2017-01-12T01:11:43.522Z,5.03
2017-01-12T01:12:43.509Z,5.03
2017-01-12T01:13:43.497Z,5.06
2017-01-12T01:14:43.486Z,5.02
2017-01-12T01:15:43.471Z,5.03
2017-01-12T01:16:43.460Z,5.07
2017-01-12T01:17:43.445Z,5.12
2017-01-12T01:18:43.436Z,5.04
2017-01-12T01:19:43.421Z,5.15
2017-01-12T01:20:43.410Z,5.13
2017-01-12T01:21:43.400Z,5.12
2017-01-12T01:22:43.387Z,5.1
2017-01-12T01:23:43.373Z,5.18
2017-01-12T01:24:43.363Z,5.09
2017-01-12T01:25:43.735Z,5.18
2017-01-12T01:26:43.336Z,5.18
2017-01-12T01:27:43.323Z,5.12
2017-01-12T01:28:43.316Z,5.15
2017-01-12T01:29:43.300Z,5.3
2017-01-12T01:30:43.289Z,5.28
2017-01-12T01:31:43.275Z,5.28
2017-01-12T01:32:43.265Z,5.22
2017-01-12T01:33:43.252Z,5.22
2017-01-12T01:34:43.623Z,5.24
2017-01-12T01:35:43.233Z,5.27
2017-01-12T01:36:43.217Z,5.31
2017-01-12T01:37:43.203Z,5.21
2017-01-12T01:38:43.195Z,5.25
2017-01-12T01:39:43.179Z,5.18
2017-01-12T01:40:43.165Z,5.21
2017-01-12T01:41:43.155Z,5.13
2017-01-12T01:42:43.144Z,5.21
2017-01-12T01:43:43.133Z,5.17
2017-01-12T01:44:43.120Z,5.17
2017-01-12T01:45:43.108Z,5.2
2017-01-12T01:46:43.094Z,5.21
2017-01-12T01:47:43.085Z,5.31
2017-01-12T01:48:43.071Z,5.28
2017-01-12T01:49:43.073Z,5.31
2017-01-12T01:50:43.048Z,5.27
2017-01-12T01:51:43.038Z,5.24
2017-01-12T01:52:43.025Z,5.24
2017-01-12T01:53:43.014Z,5.2
2017-01-12T01:54:43.001Z,5.33
2017-01-12T01:55:42.990Z,5.38
2017-01-12T01:56:42.975Z,5.28
2017-01-12T01:57:42.968Z,5.31
2017-01-12T01:58:42.953Z,5.39
2017-01-12T01:59:42.941Z,5.39
2017-01-12T02:00:42.928Z,5.36
2017-01-12T02:01:42.919Z,5.42
2017-01-12T02:02:42.904Z,5.38
2017-01-12T02:03:42.894Z,5.39
2017-01-12T02:04:42.885Z,5.42
2017-01-12T02:05:42.870Z,5.36
2017-01-12T02:06:42.858Z,5.38
2017-01-12T02:07:42.846Z,5.28
2017-01-12T02:08:42.834Z,5.21
2017-01-12T02:09:42.822Z,5.28
2017-01-12T02:10:42.814Z,5.3
2017-01-12T02:11:42.802Z,5.27
2017-01-12T02:12:42.785Z,5.25
2017-01-12T02:13:42.779Z,5.31
2017-01-12T02:14:42.761Z,5.28
2017-01-12T02:15:42.751Z,5.28
2017-01-12T02:16:42.739Z,5.3
2017-01-12T02:17:42.726Z,5.38
2017-01-12T02:18:42.716Z,5.36
2017-01-12T02:19:42.704Z,5.38
2017-01-12T02:20:42.692Z,5.36
2017-01-12T02:21:42.680Z,5.38
2017-01-12T02:22:42.675Z,5.39
2017-01-12T02:23:42.656Z,5.39
2017-01-12T02:24:42.645Z,5.46
2017-01-12T02:25:42.632Z,5.36
2017-01-12T02:26:42.619Z,5.43
2017-01-12T02:27:42.608Z,5.43
2017-01-12T02:28:42.597Z,5.38
2017-01-12T02:29:42.587Z,5.35
2017-01-12T02:30:42.573Z,5.39
2017-01-12T02:31:42.563Z,5.38
2017-01-12T02:32:42.548Z,5.38
2017-01-12T02:33:42.537Z,5.35
2017-01-12T02:34:42.527Z,5.38
2017-01-12T02:35:42.510Z,5.33
2017-01-12T02:36:42.498Z,5.31
2017-01-12T02:37:42.489Z,5.2
2017-01-12T02:38:42.476Z,5.25
2017-01-12T02:39:42.462Z,5.25
2017-01-12T02:40:42.456Z,5.17
2017-01-12T02:41:42.439Z,5.12
2017-01-12T02:42:42.430Z,5.06
2017-01-12T02:43:42.415Z,5.1
2017-01-12T02:44:42.407Z,4.99
2017-01-12T02:45:42.391Z,5
2017-01-12T02:46:42.773Z,4.97
2017-01-12T02:47:42.367Z,4.96
2017-01-12T02:48:42.358Z,4.92
2017-01-12T02:49:42.343Z,4.91
2017-01-12T02:50:42.334Z,4.86
2017-01-12T02:51:42.318Z,4.89
2017-01-12T02:52:42.693Z,4.86
2017-01-12T02:53:42.320Z,4.86
2017-01-12T02:54:42.281Z,4.94
2017-01-12T02:55:42.270Z,4.88
2017-01-12T02:56:42.262Z,4.89
2017-01-12T02:57:42.245Z,4.94
2017-01-12T02:58:42.235Z,4.99
2017-01-12T02:59:42.221Z,4.89
2017-01-12T03:00:42.210Z,4.94
2017-01-12T03:01:42.199Z,4.99
2017-01-12T03:02:42.185Z,4.96
2017-01-12T03:03:42.174Z,4.89
2017-01-12T03:04:42.163Z,5.04
2017-01-12T03:05:42.150Z,5.03
2017-01-12T03:06:42.139Z,4.99
2017-01-12T03:07:42.123Z,5
2017-01-12T03:08:42.120Z,4.97
2017-01-12T03:09:42.098Z,4.99
2017-01-12T03:10:42.088Z,5
2017-01-12T03:11:42.106Z,4.99
2017-01-12T03:12:42.062Z,5.02
2017-01-12T03:13:42.049Z,4.99
2017-01-12T03:14:42.039Z,5.02
2017-01-12T03:15:42.033Z,4.97
2017-01-12T03:16:42.015Z,5.04
2017-01-12T03:17:42.002Z,5.06
2017-01-12T03:18:41.990Z,4.97
2017-01-12T03:19:41.976Z,5.09
2017-01-12T03:20:41.966Z,5.06
2017-01-12T03:21:41.952Z,4.97
2017-01-12T03:22:41.946Z,5.02
2017-01-12T03:23:41.929Z,5.02
2017-01-12T03:24:42.309Z,5.02
2017-01-12T03:25:41.905Z,5
2017-01-12T03:26:41.891Z,4.97
2017-01-12T03:27:41.880Z,5.03
2017-01-12T03:28:41.867Z,4.99
2017-01-12T03:29:41.857Z,4.99
2017-01-12T03:30:41.843Z,4.97
2017-01-12T03:31:41.829Z,5.03
2017-01-12T03:32:41.823Z,5.04
2017-01-12T03:33:41.810Z,5.03
2017-01-12T03:34:41.793Z,4.99
2017-01-12T03:35:41.784Z,5.02
2017-01-12T03:36:41.774Z,5.02
2017-01-12T03:37:41.758Z,4.99
2017-01-12T03:38:41.746Z,5
2017-01-12T03:39:41.733Z,4.99
2017-01-12T03:40:41.722Z,4.99
2017-01-12T03:41:41.707Z,4.92
2017-01-12T03:42:41.699Z,4.96
2017-01-12T03:43:41.685Z,4.99
2017-01-12T03:44:41.673Z,4.88
2017-01-12T03:45:42.046Z,4.92
2017-01-12T03:46:41.651Z,4.89
2017-01-12T03:47:41.636Z,4.84
2017-01-12T03:48:41.624Z,4.85
2017-01-12T03:49:41.612Z,4.91
2017-01-12T03:50:41.599Z,4.92
2017-01-12T03:51:41.589Z,4.88
2017-01-12T03:52:41.576Z,4.88
2017-01-12T03:53:41.563Z,4.92
2017-01-12T03:54:41.550Z,4.89
2017-01-12T03:55:41.536Z,4.89
2017-01-12T03:56:41.550Z,4.85
2017-01-12T03:57:41.511Z,4.88
2017-01-12T03:58:41.504Z,4.86
2017-01-12T03:59:41.489Z,4.92
2017-01-12T04:00:41.477Z,4.89
2017-01-12T04:01:41.464Z,4.86
2017-01-12T04:02:41.451Z,4.88
2017-01-12T04:03:41.825Z,4.85
2017-01-12T04:04:41.429Z,4.75
2017-01-12T04:05:41.425Z,4.8
2017-01-12T04:06:41.401Z,4.84
2017-01-12T04:07:41.403Z,4.77
2017-01-12T04:08:41.375Z,4.8
2017-01-12T04:09:41.367Z,4.82
2017-01-12T04:10:41.351Z,4.75
2017-01-12T04:11:41.342Z,4.8
2017-01-12T04:12:41.328Z,4.82
2017-01-12T04:13:41.315Z,4.82
2017-01-12T04:14:41.696Z,4.72
2017-01-12T04:15:41.292Z,4.77
2017-01-12T04:16:41.279Z,4.8
2017-01-12T04:17:41.295Z,4.8
2017-01-12T04:18:41.254Z,4.89
2017-01-12T04:19:41.249Z,4.8
2017-01-12T04:20:41.235Z,4.85
2017-01-12T04:21:41.216Z,4.75
2017-01-12T04:22:41.208Z,4.8
2017-01-12T04:23:41.213Z,4.8
2017-01-12T04:24:41.184Z,4.84
2017-01-12T04:25:41.168Z,4.85
2017-01-12T04:26:41.158Z,4.8
2017-01-12T04:27:41.143Z,4.84
2017-01-12T04:28:41.134Z,4.89
2017-01-12T04:29:41.118Z,4.86
2017-01-12T04:30:41.108Z,4.84
2017-01-12T04:31:41.094Z,4.89
2017-01-12T04:32:41.086Z,4.89
2017-01-12T04:33:41.073Z,4.91
2017-01-12T04:34:41.059Z,5
2017-01-12T04:35:41.051Z,4.96
2017-01-12T04:36:41.033Z,4.88
2017-01-12T04:37:41.019Z,4.89
2017-01-12T04:38:41.009Z,4.85
2017-01-12T04:39:40.995Z,4.91
2017-01-12T04:40:40.988Z,4.82
2017-01-12T04:41:40.970Z,4.84
2017-01-12T04:42:40.962Z,4.82
2017-01-12T04:43:40.945Z,4.73
2017-01-12T04:44:40.934Z,4.77
2017-01-12T04:45:40.920Z,4.72
2017-01-12T04:46:40.909Z,4.78
2017-01-12T04:47:40.896Z,4.7
2017-01-12T04:48:40.885Z,4.8
2017-01-12T04:49:40.873Z,4.8
2017-01-12T04:50:40.857Z,4.85
2017-01-12T04:51:40.860Z,4.8
2017-01-12T04:52:40.835Z,4.77
2017-01-12T04:53:40.824Z,4.84
2017-01-12T04:54:40.806Z,4.8
2017-01-12T04:55:40.800Z,4.91
2017-01-12T04:56:40.791Z,4.84
2017-01-12T04:57:40.773Z,4.91
2017-01-12T04:58:41.147Z,4.91
2017-01-12T04:59:40.747Z,4.91
2017-01-12T05:00:40.742Z,4.84
2017-01-12T05:01:40.725Z,4.92
2017-01-12T05:02:40.710Z,4.85
2017-01-12T05:03:40.699Z,4.82
2017-01-12T05:04:40.684Z,4.8
2017-01-12T05:05:40.674Z,4.86
2017-01-12T05:06:40.663Z,4.89
2017-01-12T05:07:40.648Z,4.99
2017-01-12T05:08:40.634Z,4.92
2017-01-12T05:09:40.626Z,4.92
2017-01-12T05:10:40.611Z,4.92
2017-01-12T05:11:40.597Z,4.97
2017-01-12T05:12:40.586Z,4.94
2017-01-12T05:13:40.577Z,4.99
2017-01-12T05:14:40.570Z,5.02
2017-01-12T05:15:40.549Z,4.96
2017-01-12T05:16:40.536Z,4.92
2017-01-12T05:17:40.524Z,4.96
2017-01-12T05:18:40.512Z,4.92
2017-01-12T05:19:40.497Z,4.91
2017-01-12T05:20:40.489Z,4.91
2017-01-12T05:21:40.478Z,4.88
2017-01-12T05:22:40.463Z,4.92
2017-01-12T05:23:40.450Z,4.88
2017-01-12T05:24:40.440Z,4.96
2017-01-12T05:25:40.428Z,4.96
2017-01-12T05:26:40.414Z,4.91
2017-01-12T05:27:40.400Z,4.89
2017-01-12T05:28:40.392Z,4.88
2017-01-12T05:29:40.377Z,4.84
2017-01-12T05:30:40.364Z,4.77
2017-01-12T05:31:40.364Z,4.85
2017-01-12T05:32:40.340Z,4.77
2017-01-12T05:33:40.357Z,4.8
2017-01-12T05:34:40.315Z,4.73
2017-01-12T05:35:40.304Z,4.8
2017-01-12T05:36:40.292Z,4.82
2017-01-12T05:37:40.281Z,4.73
2017-01-12T05:38:40.265Z,4.73
2017-01-12T05:39:40.252Z,4.67
2017-01-12T05:40:40.241Z,4.63
2017-01-12T05:41:40.230Z,4.67
2017-01-12T05:42:40.215Z,4.67
2017-01-12T05:43:40.207Z,4.72
2017-01-12T05:44:40.192Z,4.69
2017-01-12T05:45:40.180Z,4.78
2017-01-12T05:46:40.166Z,4.73
2017-01-12T05:47:40.154Z,4.69
2017-01-12T05:48:40.142Z,4.78
2017-01-12T05:49:40.128Z,4.77
2017-01-12T05:50:40.116Z,4.84
2017-01-12T05:51:40.106Z,4.75
2017-01-12T05:52:40.093Z,4.77
2017-01-12T05:53:40.079Z,4.8
2017-01-12T05:54:40.096Z,4.85
2017-01-12T05:55:40.057Z,4.78
2017-01-12T05:56:40.042Z,4.94
2017-01-12T05:57:40.028Z,4.77
2017-01-12T05:58:40.018Z,4.86
2017-01-12T05:59:40.005Z,4.92
2017-01-12T06:00:39.990Z,4.86
2017-01-12T06:01:39.982Z,4.86
2017-01-12T06:02:39.974Z,4.91
2017-01-12T06:03:39.955Z,4.8
2017-01-12T06:04:39.942Z,4.86
2017-01-12T06:05:39.931Z,4.86
2017-01-12T06:06:39.918Z,4.85
2017-01-12T06:07:39.906Z,4.88
2017-01-12T06:08:39.896Z,4.77
2017-01-12T06:09:39.881Z,4.78
2017-01-12T06:10:39.869Z,4.78
2017-01-12T06:11:39.856Z,4.77
2017-01-12T06:12:39.845Z,4.8
2017-01-12T06:13:39.833Z,4.85
2017-01-12T06:14:40.206Z,4.8
2017-01-12T06:15:39.806Z,4.84
2017-01-12T06:16:39.800Z,4.86
2017-01-12T06:17:39.782Z,4.88
2017-01-12T06:18:39.770Z,4.8
2017-01-12T06:19:39.760Z,4.72
2017-01-12T06:20:39.744Z,4.69
2017-01-12T06:21:39.732Z,4.7
2017-01-12T06:22:39.724Z,4.78
2017-01-12T06:23:39.709Z,4.66
2017-01-12T06:24:39.696Z,4.69
2017-01-12T06:25:39.683Z,4.65
2017-01-12T06:26:39.671Z,4.5
2017-01-12T06:27:39.658Z,4.5
2017-01-12T06:28:39.646Z,4.34
2017-01-12T06:29:39.632Z,4.37
2017-01-12T06:30:39.621Z,4.33
2017-01-12T06:31:39.610Z,4.23
2017-01-12T06:32:39.596Z,4.15
2017-01-12T06:33:39.582Z,4.08
2017-01-12T06:34:39.574Z,4.12
2017-01-12T06:35:39.559Z,4.12
2017-01-12T06:36:39.546Z,4.12
2017-01-12T06:37:39.533Z,4
2017-01-12T06:38:39.525Z,4.11
2017-01-12T06:39:39.543Z,4.09
2017-01-12T06:40:39.495Z,4.04
2017-01-12T06:41:39.509Z,4.08
2017-01-12T06:42:39.476Z,4.11
2017-01-12T06:43:39.457Z,4.14
2017-01-12T06:44:39.470Z,4.05
2017-01-12T06:45:39.816Z,3.96
2017-01-12T06:46:39.422Z,3.91
2017-01-12T06:47:39.403Z,3.93
2017-01-12T06:48:39.396Z,3.9
2017-01-12T06:49:39.377Z,3.84
2017-01-12T06:50:39.372Z,3.76
2017-01-12T06:51:39.351Z,3.73
2017-01-12T06:52:39.337Z,3.78
2017-01-12T06:53:39.324Z,3.72
2017-01-12T06:54:39.338Z,3.78
2017-01-12T06:55:39.684Z,3.72
2017-01-12T06:56:39.285Z,3.68
2017-01-12T06:57:39.273Z,3.7
2017-01-12T06:58:39.256Z,3.69
2017-01-12T06:59:39.247Z,3.66
2017-01-12T07:00:39.237Z,3.68
2017-01-12T07:01:39.221Z,3.6
2017-01-12T07:02:39.210Z,3.65
2017-01-12T07:03:39.195Z,3.55
2017-01-12T07:04:39.181Z,3.66
2017-01-12T07:05:39.165Z,3.68
2017-01-12T07:06:39.152Z,3.66
2017-01-12T07:07:39.143Z,3.62
2017-01-12T07:08:39.128Z,3.66
2017-01-12T07:09:39.112Z,3.72
2017-01-12T07:10:39.104Z,3.69
2017-01-12T07:11:39.087Z,3.62
2017-01-12T07:12:39.070Z,3.68
2017-01-12T07:13:39.058Z,3.72
2017-01-12T07:14:39.045Z,3.68
2017-01-12T07:15:39.036Z,3.75
2017-01-12T07:16:39.019Z,3.76
2017-01-12T07:17:39.009Z,3.76
2017-01-12T07:18:38.991Z,3.9
2017-01-12T07:19:38.981Z,3.73
2017-01-12T07:20:38.991Z,3.9
2017-01-12T07:21:38.952Z,3.94
2017-01-12T07:22:38.943Z,3.96
2017-01-12T07:23:38.931Z,4.05
2017-01-12T07:24:38.916Z,4.05
2017-01-12T07:25:38.907Z,4.04
2017-01-12T07:26:38.891Z,4.08
2017-01-12T07:27:38.877Z,4.05
2017-01-12T07:28:38.861Z,4.18
2017-01-12T07:29:38.847Z,4.12
2017-01-12T07:30:38.844Z,4.26
2017-01-12T07:31:38.825Z,4.29
2017-01-12T07:32:38.811Z,4.29
2017-01-12T07:33:38.798Z,4.36
2017-01-12T07:34:38.790Z,4.36
2017-01-12T07:35:38.769Z,4.48
2017-01-12T07:36:38.757Z,4.51
2017-01-12T07:37:38.747Z,4.58
2017-01-12T07:38:38.736Z,4.62
2017-01-12T07:39:38.721Z,4.69
2017-01-12T07:40:38.709Z,4.62
2017-01-12T07:41:38.699Z,4.62
2017-01-12T07:42:38.684Z,4.6
2017-01-12T07:43:38.677Z,4.72
2017-01-12T07:44:38.662Z,4.69
2017-01-12T07:45:38.649Z,4.69
2017-01-12T07:46:38.634Z,4.86
2017-01-12T07:47:38.622Z,4.72
2017-01-12T07:48:38.610Z,4.69
2017-01-12T07:49:38.597Z,4.77
2017-01-12T07:50:38.584Z,4.75
2017-01-12T07:51:38.570Z,4.73
2017-01-12T07:52:38.562Z,4.88
2017-01-12T07:53:38.549Z,4.88
2017-01-12T07:54:38.535Z,4.91
2017-01-12T07:55:38.526Z,4.96
2017-01-12T07:56:38.511Z,4.96
2017-01-12T07:57:38.499Z,5
2017-01-12T07:58:38.487Z,4.92
2017-01-12T07:59:38.477Z,5.09
2017-01-12T08:00:38.465Z,4.97
2017-01-12T08:01:38.450Z,5.03
2017-01-12T08:02:38.441Z,5.03
2017-01-12T08:03:38.425Z,5.04
2017-01-12T08:04:38.411Z,5.12
2017-01-12T08:05:38.789Z,5.13
2017-01-12T08:06:38.782Z,5.17
2017-01-12T08:07:38.378Z,5.13
2017-01-12T08:08:38.370Z,5.25
2017-01-12T08:09:38.742Z,5.24
2017-01-12T08:10:38.342Z,5.3
2017-01-12T08:11:38.726Z,5.24
2017-01-12T08:12:38.320Z,5.31
2017-01-12T08:13:38.312Z,5.25
2017-01-12T08:14:38.294Z,5.2
2017-01-12T08:15:38.284Z,5.36
2017-01-12T08:16:38.271Z,5.33
2017-01-12T08:17:38.261Z,5.36
2017-01-12T08:18:38.248Z,5.43
2017-01-12T08:19:38.234Z,5.48
2017-01-12T08:20:38.608Z,5.42
2017-01-12T08:21:38.212Z,5.57
2017-01-12T08:22:38.208Z,5.56
2017-01-12T08:23:38.187Z,5.57
2017-01-12T08:24:38.179Z,5.63
2017-01-12T08:25:38.170Z,5.58
2017-01-12T08:26:38.152Z,5.65
2017-01-12T08:27:38.141Z,5.76
2017-01-12T08:28:38.129Z,5.76
2017-01-12T08:29:38.115Z,5.81
2017-01-12T08:30:38.103Z,5.9
2017-01-12T08:31:38.108Z,5.9
2017-01-12T08:32:38.083Z,5.85
2017-01-12T08:33:38.072Z,5.81
2017-01-12T08:34:38.109Z,5.79
2017-01-12T08:35:38.047Z,5.89
2017-01-12T08:36:38.035Z,5.9
2017-01-12T08:37:38.025Z,5.91
2017-01-12T08:38:38.018Z,5.86
2017-01-12T08:39:38.001Z,5.91
2017-01-12T08:40:37.992Z,5.89
2017-01-12T08:41:37.979Z,5.85
2017-01-12T08:42:37.967Z,5.81
2017-01-12T08:43:37.958Z,5.86
2017-01-12T08:44:37.945Z,5.89
2017-01-12T08:45:38.321Z,5.99
2017-01-12T08:46:37.921Z,5.91
2017-01-12T08:47:37.914Z,5.97
2017-01-12T08:48:37.898Z,5.91
2017-01-12T08:49:37.894Z,6.04
2017-01-12T08:50:37.876Z,6.03
2017-01-12T08:51:37.867Z,6.03
2017-01-12T08:52:37.855Z,6.15
2017-01-12T08:53:37.846Z,6.08
2017-01-12T08:54:37.836Z,6.09
2017-01-12T08:55:37.827Z,6.19
2017-01-12T08:56:37.809Z,6.22
2017-01-12T08:57:37.804Z,6.28
2017-01-12T08:58:37.791Z,6.22
2017-01-12T08:59:37.784Z,6.31
2017-01-12T09:00:37.765Z,6.36
2017-01-12T09:01:37.760Z,6.36
2017-01-12T09:02:37.753Z,6.37
2017-01-12T09:03:37.732Z,6.41
2017-01-12T09:04:37.731Z,6.4
2017-01-12T09:05:37.715Z,6.48
2017-01-12T09:06:37.702Z,6.4
2017-01-12T09:07:37.719Z,6.46
2017-01-12T09:08:37.682Z,6.36
2017-01-12T09:09:37.668Z,6.48
2017-01-12T09:10:37.662Z,6.52
2017-01-12T09:11:37.653Z,6.52
2017-01-12T09:12:37.637Z,6.52
2017-01-12T09:13:38.019Z,6.49
2017-01-12T09:14:37.615Z,6.55
2017-01-12T09:15:37.606Z,6.56
2017-01-12T09:16:37.635Z,6.49
2017-01-12T09:17:37.583Z,6.52
2017-01-12T09:18:37.572Z,6.54
2017-01-12T09:19:37.566Z,6.48
2017-01-12T09:20:37.551Z,6.48
2017-01-12T09:21:37.540Z,6.51
2017-01-12T09:22:37.536Z,6.52
2017-01-12T09:23:37.523Z,6.48
2017-01-12T09:24:37.515Z,6.58
2017-01-12T09:25:37.497Z,6.61
2017-01-12T09:26:37.491Z,6.58
2017-01-12T09:27:37.483Z,6.56
2017-01-12T09:28:37.467Z,6.67
2017-01-12T09:29:37.455Z,6.69
2017-01-12T09:30:37.476Z,6.74
2017-01-12T09:31:37.438Z,6.87
2017-01-12T09:32:37.428Z,6.8
2017-01-12T09:33:37.413Z,6.88
2017-01-12T09:34:37.408Z,6.84
2017-01-12T09:35:37.397Z,6.85
2017-01-12T09:36:37.386Z,6.88
2017-01-12T09:37:37.372Z,6.87
2017-01-12T09:38:37.364Z,6.92
2017-01-12T09:39:37.350Z,6.84
2017-01-12T09:40:37.344Z,6.79
2017-01-12T09:41:37.331Z,6.84
2017-01-12T09:42:37.320Z,6.76
2017-01-12T09:43:37.309Z,6.84
2017-01-12T09:44:37.308Z,6.81
2017-01-12T09:45:37.292Z,6.84
2017-01-12T09:46:37.278Z,6.85
2017-01-12T09:47:37.271Z,6.73
2017-01-12T09:48:37.258Z,6.8
2017-01-12T09:49:37.248Z,6.84
2017-01-12T09:50:37.243Z,6.81
2017-01-12T09:51:37.228Z,6.88
2017-01-12T09:52:37.225Z,6.88
2017-01-12T09:53:37.206Z,6.85
2017-01-12T09:54:37.205Z,6.89
2017-01-12T09:55:37.192Z,6.91
2017-01-12T09:56:37.179Z,6.85
2017-01-12T09:57:37.164Z,6.94
2017-01-12T09:58:37.153Z,6.89
2017-01-12T09:59:37.147Z,6.91
2017-01-12T10:00:37.140Z,6.88
2017-01-12T10:01:37.128Z,6.85
2017-01-12T10:02:37.113Z,6.85
2017-01-12T10:03:37.104Z,6.85
2017-01-12T10:04:37.093Z,6.88
2017-01-12T10:05:37.081Z,6.84
2017-01-12T10:06:37.072Z,6.81
2017-01-12T10:07:37.097Z,6.79
2017-01-12T10:08:37.051Z,6.74
2017-01-12T10:09:37.072Z,6.69
2017-01-12T10:10:37.039Z,6.76
2017-01-12T10:11:37.017Z,6.73
2017-01-12T10:12:37.012Z,6.76
2017-01-12T10:13:36.998Z,6.7
2017-01-12T10:14:36.987Z,6.81
2017-01-12T10:15:36.975Z,6.87
2017-01-12T10:16:36.969Z,6.8
2017-01-12T10:17:36.961Z,6.77
2017-01-12T10:18:36.944Z,6.74
2017-01-12T10:19:36.932Z,6.73
2017-01-12T10:20:36.922Z,6.79
2017-01-12T10:21:36.917Z,6.76
2017-01-12T10:22:36.904Z,6.85
2017-01-12T10:23:37.276Z,6.85
2017-01-12T10:24:36.881Z,6.89
2017-01-12T10:25:36.870Z,6.87
2017-01-12T10:26:36.856Z,6.91
2017-01-12T10:27:36.857Z,6.98
2017-01-12T10:28:36.841Z,6.99
2017-01-12T10:29:36.827Z,6.98
2017-01-12T10:30:36.815Z,6.94
2017-01-12T10:31:36.811Z,6.95
2017-01-12T10:32:36.795Z,6.88
2017-01-12T10:33:37.173Z,6.84
2017-01-12T10:34:36.773Z,6.85
2017-01-12T10:35:36.764Z,6.8
2017-01-12T10:36:36.754Z,6.73
2017-01-12T10:37:36.739Z,6.84
2017-01-12T10:38:36.730Z,6.77
2017-01-12T10:39:36.725Z,6.81
2017-01-12T10:40:36.709Z,6.66
2017-01-12T10:41:36.704Z,6.71
2017-01-12T10:42:36.691Z,6.77
2017-01-12T10:43:36.679Z,6.7
2017-01-12T10:44:36.672Z,6.85
2017-01-12T10:45:36.659Z,6.73
2017-01-12T10:46:36.650Z,6.71
2017-01-12T10:47:36.638Z,6.76
2017-01-12T10:48:36.631Z,6.8
2017-01-12T10:49:36.616Z,6.77
2017-01-12T10:50:36.997Z,6.79
2017-01-12T10:51:36.597Z,6.69
2017-01-12T10:52:36.585Z,6.7
2017-01-12T10:53:36.577Z,6.64
2017-01-12T10:54:36.563Z,6.67
2017-01-12T10:55:36.559Z,6.66
2017-01-12T10:56:36.541Z,6.69
2017-01-12T10:57:36.536Z,6.61
2017-01-12T10:58:36.520Z,6.59
2017-01-12T10:59:36.515Z,6.7
2017-01-12T11:00:36.505Z,6.58
2017-01-12T11:01:36.488Z,6.69
2017-01-12T11:02:36.479Z,6.71
2017-01-12T11:03:36.467Z,6.73
2017-01-12T11:04:36.458Z,6.7
2017-01-12T11:05:36.453Z,6.71
2017-01-12T11:06:36.437Z,6.71
2017-01-12T11:07:36.426Z,6.66
2017-01-12T11:08:36.415Z,6.81
2017-01-12T11:09:36.405Z,6.85
2017-01-12T11:10:36.389Z,6.89
2017-01-12T11:11:36.387Z,6.91
2017-01-12T11:12:36.373Z,7.05
2017-01-12T11:13:36.363Z,6.95
2017-01-12T11:14:36.352Z,7.09
2017-01-12T11:15:36.340Z,7.09
2017-01-12T11:16:36.328Z,7.2
2017-01-12T11:17:36.320Z,7.27
2017-01-12T11:18:36.309Z,7.27
2017-01-12T11:19:36.299Z,7.35
2017-01-12T11:20:36.289Z,7.42
2017-01-12T11:21:36.281Z,7.5
2017-01-12T11:22:36.265Z,7.49
2017-01-12T11:23:36.258Z,7.5
2017-01-12T11:24:36.247Z,7.5
2017-01-12T11:25:36.234Z,7.57
2017-01-12T11:26:36.229Z,7.61
2017-01-12T11:27:36.219Z,7.58
2017-01-12T11:28:36.205Z,7.52
2017-01-12T11:29:36.199Z,7.55
2017-01-12T11:30:36.185Z,7.67
2017-01-12T11:31:36.177Z,7.68
2017-01-12T11:32:36.168Z,7.74
2017-01-12T11:33:36.156Z,7.8
2017-01-12T11:34:36.150Z,7.83
2017-01-12T11:35:36.139Z,8.05
2017-01-12T11:36:36.127Z,8.02
2017-01-12T11:37:36.505Z,8.07
2017-01-12T11:38:36.110Z,8.16
2017-01-12T11:39:36.096Z,8.25
2017-01-12T11:40:36.087Z,8.2
2017-01-12T11:41:36.082Z,8.33
2017-01-12T11:42:36.073Z,8.29
2017-01-12T11:43:36.072Z,8.25
2017-01-12T11:44:36.051Z,8.28
2017-01-12T11:45:36.054Z,8.36
2017-01-12T11:46:36.032Z,8.29
2017-01-12T11:47:36.020Z,8.3
2017-01-12T11:48:36.019Z,8.33
2017-01-12T11:49:36.006Z,8.29
2017-01-12T11:50:35.995Z,8.26
2017-01-12T11:51:35.984Z,8.29
2017-01-12T11:52:35.981Z,8.33
2017-01-12T11:53:35.973Z,8.3
2017-01-12T11:54:35.955Z,8.29
2017-01-12T11:55:35.949Z,8.36
2017-01-12T11:56:35.942Z,8.29
2017-01-12T11:57:35.929Z,8.29
2017-01-12T11:58:35.927Z,8.22
2017-01-12T11:59:35.910Z,8.11
2017-01-12T12:00:35.903Z,8
2017-01-12T12:01:35.891Z,7.98
2017-01-12T12:02:35.881Z,7.98
2017-01-12T12:03:35.874Z,7.95
2017-01-12T12:04:36.251Z,7.95
2017-01-12T12:05:35.855Z,7.98
2017-01-12T12:06:35.847Z,8.01
2017-01-12T12:07:35.835Z,7.97
2017-01-12T12:08:35.828Z,8.01
2017-01-12T12:09:35.816Z,7.98
2017-01-12T12:10:35.808Z,8.05
2017-01-12T12:11:35.797Z,8.11
2017-01-12T12:12:35.791Z,8.11
2017-01-12T12:13:35.779Z,8.19
2017-01-12T12:14:35.772Z,8.18
2017-01-12T12:15:35.862Z,8.16
2017-01-12T12:16:35.753Z,8.1
2017-01-12T12:17:35.742Z,8.25
2017-01-12T12:18:36.121Z,8.18
2017-01-12T12:19:35.725Z,8.23
2017-01-12T12:20:35.713Z,8.25
2017-01-12T12:21:35.705Z,8.22
2017-01-12T12:22:35.701Z,8.25
2017-01-12T12:23:35.688Z,8.16
2017-01-12T12:24:35.676Z,8.15
2017-01-12T12:25:35.668Z,8.15
2017-01-12T12:26:35.661Z,8.12
2017-01-12T12:27:35.648Z,8.11
2017-01-12T12:28:35.642Z,8.07
2017-01-12T12:29:35.630Z,8.02
2017-01-12T12:30:35.620Z,7.95
2017-01-12T12:31:35.624Z,7.97
2017-01-12T12:32:35.603Z,7.97
2017-01-12T12:33:35.593Z,7.95
2017-01-12T12:34:35.583Z,7.98
2017-01-12T12:35:35.582Z,7.95
2017-01-12T12:36:35.568Z,7.86
2017-01-12T12:37:35.559Z,7.89
2017-01-12T12:38:35.547Z,7.79
2017-01-12T12:39:35.539Z,7.77
2017-01-12T12:40:35.527Z,7.8
2017-01-12T12:41:35.523Z,7.77
2017-01-12T12:42:35.509Z,7.79
2017-01-12T12:43:35.889Z,7.8
2017-01-12T12:44:35.492Z,7.77
2017-01-12T12:45:35.484Z,7.85
2017-01-12T12:46:35.471Z,7.82
2017-01-12T12:47:35.467Z,7.8
2017-01-12T12:48:35.454Z,7.8
2017-01-12T12:49:35.443Z,7.69
2017-01-12T12:50:35.434Z,7.72
2017-01-12T12:51:35.422Z,7.67
2017-01-12T12:52:35.417Z,7.71
2017-01-12T12:53:35.405Z,7.61
2017-01-12T12:54:35.393Z,7.6
2017-01-12T12:55:35.387Z,7.49
2017-01-12T12:56:35.378Z,7.5
2017-01-12T12:57:35.368Z,7.45
2017-01-12T12:58:35.388Z,7.53
2017-01-12T12:59:35.735Z,7.48
2017-01-12T13:00:35.343Z,7.6
2017-01-12T13:01:35.326Z,7.43
2017-01-12T13:02:35.319Z,7.49
2017-01-12T13:03:35.309Z,7.48
2017-01-12T13:04:35.298Z,7.57
2017-01-12T13:05:35.289Z,7.45
2017-01-12T13:06:35.283Z,7.42
2017-01-12T13:07:35.272Z,7.24
2017-01-12T13:08:35.648Z,7.32
2017-01-12T13:09:35.262Z,7.27
2017-01-12T13:10:35.241Z,7.3
2017-01-12T13:11:35.230Z,7.28
2017-01-12T13:12:35.222Z,7.3
2017-01-12T13:13:35.250Z,7.17
2017-01-12T13:14:35.206Z,7.13
2017-01-12T13:15:35.196Z,7.15
2017-01-12T13:16:35.569Z,7.24
2017-01-12T13:17:35.173Z,7.21
2017-01-12T13:18:35.168Z,7.15
2017-01-12T13:19:35.159Z,7.13
2017-01-12T13:20:35.146Z,7.13
2017-01-12T13:21:35.133Z,7.1
2017-01-12T13:22:35.123Z,7.07